Terminal Aerodrome Forecast
Issued by NWS Mt. Holly, NJ

Home | Current Version | Previous Version | Text Only | Print | Product List | Glossary On
Versions: 1 2 3 4 5 6 7 8 9 10 11 12 13 14 15 16 17 18 19 20 21 22 23 24 25 26 27 28 29
000
FTUS41 KPHI 051127
TAFPHL
TAF
KPHL 051127Z 0512/0618 07008KT P6SM BKN015
     FM051400 07008KT P6SM BKN025
     FM051600 07008KT P6SM BKN035
     FM052000 09008KT P6SM SCT045
     FM060300 05004KT P6SM SKC
     FM061300 11006KT P6SM SCT250=

USA.gov is the U.S. government's official web portal to all federal, state and local government web resources and services.